Time;durP1;ratioP1;P1;durP2;ratioP2;P2;SDS_P1;SDS_P2;PMS_P1;PMS_P2;Temp;Humidity;BMP_temperature;BMP_pressure;BME280_temperature;BME280_humidity;BME280_pressure;Samples;Min_cycle;Max_cycle;Signal;HPM_P1;HPM_P2
2022/01/31 05:02:54;;;;;;;7.40;3.57;;;4.40;99.90;;;;;;4956417;29;20819;-67
2022/01/31 05:05:21;;;;;;;8.23;3.80;;;4.40;99.90;;;;;;4957721;28;20519;-67
2022/01/31 05:07:48;;;;;;;9.60;4.50;;;4.50;99.90;;;;;;4957656;28;20513;-66
2022/01/31 05:10:15;;;;;;;9.70;3.73;;;4.50;99.90;;;;;;4957500;28;20454;-67
2022/01/31 05:12:42;;;;;;;5.97;3.30;;;4.60;99.90;;;;;;4957185;29;20456;-67
2022/01/31 05:15:10;;;;;;;5.77;4.00;;;4.60;99.90;;;;;;4957308;29;20484;-67
2022/01/31 05:17:37;;;;;;;9.27;3.83;;;4.50;99.90;;;;;;4957091;29;20467;-67
2022/01/31 05:20:06;;;;;;;8.23;3.20;;;4.60;99.90;;;;;;4957186;29;20491;-67
2022/01/31 05:22:33;;;;;;;11.50;4.57;;;4.50;99.90;;;;;;4956659;29;20484;-67
2022/01/31 05:25:00;;;;;;;7.03;3.20;;;4.60;99.90;;;;;;4956934;29;20468;-67
2022/01/31 05:27:26;;;;;;;9.60;3.30;;;4.60;99.90;;;;;;4960185;29;20974;-66
2022/01/31 05:29:54;;;;;;;9.60;3.70;;;4.60;99.90;;;;;;4957372;29;20867;-67
2022/01/31 05:32:20;;;;;;;5.97;3.07;;;4.70;99.90;;;;;;4956906;29;20480;-66
2022/01/31 05:34:47;;;;;;;13.20;3.77;;;4.80;99.90;;;;;;4957206;29;20465;-67
2022/01/31 05:37:15;;;;;;;9.00;3.87;;;4.80;99.90;;;;;;4956669;29;20940;-69
2022/01/31 05:39:43;;;;;;;10.97;4.07;;;4.90;99.90;;;;;;4956949;28;20481;-66
2022/01/31 05:42:10;;;;;;;12.60;3.50;;;4.80;99.90;;;;;;4956964;29;20477;-66
2022/01/31 05:44:37;;;;;;;7.97;3.00;;;4.90;99.90;;;;;;4956880;28;20459;-67
2022/01/31 05:47:04;;;;;;;8.60;2.87;;;4.90;99.90;;;;;;4956865;29;20817;-67
2022/01/31 05:49:32;;;;;;;10.37;4.20;;;4.90;99.90;;;;;;4956794;28;20908;-66
2022/01/31 05:52:03;;;;;;;7.73;3.50;;;4.90;99.90;;;;;;4956435;29;20482;-65
2022/01/31 05:54:33;;;;;;;9.67;3.20;;;5.10;99.90;;;;;;4956778;28;20856;-65
2022/01/31 05:57:00;;;;;;;6.10;2.93;;;5.40;99.90;;;;;;4956931;29;20458;-65
2022/01/31 05:59:27;;;;;;;7.60;3.23;;;5.80;99.90;;;;;;4956585;29;20437;-65
2022/01/31 06:01:54;;;;;;;5.30;3.27;;;5.90;99.90;;;;;;4956194;29;20486;-65
2022/01/31 06:04:21;;;;;;;10.30;3.33;;;6.10;99.90;;;;;;4957194;29;20465;-66
2022/01/31 06:06:48;;;;;;;9.53;3.10;;;6.00;99.90;;;;;;4956608;29;20455;-67
2022/01/31 06:09:14;;;;;;;5.80;3.30;;;6.00;99.90;;;;;;4956536;29;20448;-67
2022/01/31 06:11:45;;;;;;;4.87;3.70;;;5.90;99.90;;;;;;4955845;28;20481;-67
2022/01/31 06:14:11;;;;;;;9.50;4.37;;;5.90;99.90;;;;;;4956484;29;20785;-66
2022/01/31 06:16:38;;;;;;;5.90;2.93;;;5.90;99.90;;;;;;4956454;29;20461;-67
2022/01/31 06:19:06;;;;;;;10.00;3.63;;;5.80;99.90;;;;;;4956305;29;20981;-67
2022/01/31 06:21:32;;;;;;;7.10;2.63;;;5.70;99.90;;;;;;4956650;28;20483;-67
2022/01/31 06:23:59;;;;;;;10.03;3.80;;;5.70;99.90;;;;;;4956475;29;20457;-68
2022/01/31 06:26:27;;;;;;;9.23;4.73;;;5.70;99.90;;;;;;4956238;29;20454;-66
2022/01/31 06:28:55;;;;;;;10.17;3.00;;;5.70;99.90;;;;;;4956469;29;20472;-66
2022/01/31 06:31:22;;;;;;;7.10;4.17;;;5.50;99.90;;;;;;4956395;29;20480;-66
2022/01/31 06:33:49;;;;;;;10.10;4.40;;;5.50;99.90;;;;;;4956544;29;20451;-67
2022/01/31 06:36:22;;;;;;;6.20;3.50;;;5.60;99.90;;;;;;4956668;29;20830;-67
2022/01/31 06:38:48;;;;;;;6.20;3.63;;;5.50;99.90;;;;;;4955991;29;20543;-67
2022/01/31 06:41:17;;;;;;;5.63;3.23;;;5.50;99.90;;;;;;4956177;29;20488;-67
2022/01/31 06:43:44;;;;;;;10.33;4.20;;;5.50;99.90;;;;;;4956476;29;20535;-66
2022/01/31 06:46:12;;;;;;;4.77;2.73;;;5.40;99.90;;;;;;4956093;29;20462;-68
2022/01/31 06:48:39;;;;;;;10.63;4.10;;;5.30;99.90;;;;;;4956150;29;20470;-66
2022/01/31 06:51:06;;;;;;;9.43;3.00;;;5.30;99.90;;;;;;4956067;29;20499;-67
2022/01/31 06:53:33;;;;;;;8.43;3.70;;;5.20;99.90;;;;;;4955830;29;20815;-67
2022/01/31 06:56:00;;;;;;;9.90;3.33;;;5.10;99.90;;;;;;4956110;29;20490;-65
2022/01/31 06:58:28;;;;;;;6.57;3.03;;;5.10;99.90;;;;;;4958008;29;20448;-67
2022/01/31 07:00:56;;;;;;;6.50;3.20;;;5.10;99.90;;;;;;4957411;29;20489;-68
2022/01/31 07:03:24;;;;;;;5.60;3.47;;;5.10;99.90;;;;;;4955470;28;20962;-66
2022/01/31 07:05:51;;;;;;;6.43;3.70;;;5.10;99.90;;;;;;4955671;29;20559;-66
2022/01/31 07:08:18;;;;;;;9.80;3.70;;;5.10;99.90;;;;;;4955627;29;20455;-67
2022/01/31 07:10:50;;;;;;;8.67;3.17;;;5.10;99.90;;;;;;4955674;29;20838;-67
2022/01/31 07:13:34;;;;;;;5.00;3.00;;;5.10;99.90;;;;;;4955976;29;20448;-67
2022/01/31 07:16:01;;;;;;;7.00;2.80;;;5.10;99.90;;;;;;4955638;29;20510;-66
2022/01/31 07:18:31;;;;;;;9.33;3.37;;;5.00;99.90;;;;;;4955603;29;20453;-67
2022/01/31 07:20:58;;;;;;;6.17;2.93;;;5.00;99.90;;;;;;4955458;29;20496;-66
2022/01/31 07:23:27;;;;;;;6.23;3.23;;;4.80;99.90;;;;;;4956530;28;20441;-66
2022/01/31 07:25:54;;;;;;;6.73;3.20;;;4.90;99.90;;;;;;4958642;28;20550;-66
2022/01/31 07:28:21;;;;;;;4.67;3.30;;;4.80;99.90;;;;;;4958905;29;20444;-66
2022/01/31 07:30:50;;;;;;;11.53;3.27;;;4.90;99.90;;;;;;4958962;29;20478;-66
2022/01/31 07:33:18;;;;;;;5.80;3.37;;;4.90;99.90;;;;;;4958732;28;20818;-66
2022/01/31 07:35:48;;;;;;;6.77;3.23;;;4.90;99.90;;;;;;4958956;29;20461;-66
2022/01/31 07:38:16;;;;;;;17.43;3.80;;;4.90;99.90;;;;;;4958895;29;20463;-67
2022/01/31 07:40:43;;;;;;;6.30;3.27;;;4.90;99.90;;;;;;4958857;29;20485;-66
2022/01/31 07:43:10;;;;;;;5.73;3.07;;;4.90;99.90;;;;;;4958955;28;20483;-67
2022/01/31 07:45:37;;;;;;;5.20;3.77;;;4.90;99.90;;;;;;4959095;29;20464;-67
2022/01/31 07:48:04;;;;;;;8.13;3.27;;;4.90;99.90;;;;;;4958983;29;20460;-67
2022/01/31 07:50:32;;;;;;;3.80;2.63;;;4.90;99.90;;;;;;4959030;28;20478;-66
2022/01/31 07:53:02;;;;;;;3.47;2.33;;;5.00;99.90;;;;;;4958800;29;20459;-66
2022/01/31 07:55:29;;;;;;;5.10;2.57;;;5.00;99.90;;;;;;4958735;28;20475;-66
2022/01/31 07:57:56;;;;;;;3.70;2.80;;;5.00;99.90;;;;;;4958732;29;20461;-67
2022/01/31 08:00:23;;;;;;;7.10;1.97;;;4.90;99.90;;;;;;4958860;28;20489;-67
2022/01/31 08:02:49;;;;;;;3.70;2.20;;;4.90;99.90;;;;;;4958650;29;20445;-66
2022/01/31 08:05:21;;;;;;;3.40;1.87;;;4.90;99.90;;;;;;4958311;29;20465;-66
2022/01/31 08:07:48;;;;;;;4.03;2.43;;;4.90;99.90;;;;;;4958009;29;20443;-66
2022/01/31 08:10:16;;;;;;;3.80;1.90;;;4.90;99.90;;;;;;4958163;29;20455;-67
2022/01/31 08:12:44;;;;;;;2.07;1.90;;;4.90;99.90;;;;;;4958404;29;20868;-66
2022/01/31 08:15:20;;;;;;;2.80;2.53;;;5.00;99.90;;;;;;4958295;28;20854;-67
2022/01/31 08:17:46;;;;;;;1.10;1.10;;;4.90;99.90;;;;;;4958136;29;20848;-67
2022/01/31 08:20:13;;;;;;;0.97;0.80;;;5.00;99.90;;;;;;4957632;29;20459;-66
2022/01/31 08:22:40;;;;;;;1.03;0.90;;;5.00;99.90;;;;;;4958007;29;20466;-66
2022/01/31 08:25:13;;;;;;;0.90;0.90;;;5.00;99.90;;;;;;4957720;29;20460;-67
2022/01/31 08:27:45;;;;;;;0.87;0.77;;;5.10;99.90;;;;;;4958139;29;20856;-67
2022/01/31 08:30:17;;;;;;;0.90;0.90;;;5.00;99.90;;;;;;4958265;29;20855;-66
2022/01/31 08:32:47;;;;;;;0.67;0.67;;;5.10;99.90;;;;;;4960319;29;20453;-67
2022/01/31 08:37:58;;;;;;;0.90;0.90;;;5.10;99.90;;;;;;4957977;29;20491;-65
2022/01/31 08:40:24;;;;;;;1.03;1.03;;;5.20;99.90;;;;;;4957640;29;20480;-67
2022/01/31 08:42:53;;;;;;;1.00;1.00;;;5.20;99.90;;;;;;4957781;29;20462;-66
2022/01/31 08:45:19;;;;;;;0.90;0.90;;;5.20;99.90;;;;;;4957780;29;20462;-65
2022/01/31 08:47:46;;;;;;;2.90;2.70;;;5.30;99.90;;;;;;4957624;29;20461;-67
2022/01/31 08:50:13;;;;;;;1.73;1.40;;;5.30;99.90;;;;;;4957644;29;20822;-66
2022/01/31 08:52:40;;;;;;;3.67;2.00;;;5.40;99.90;;;;;;4957347;29;20963;-66
2022/01/31 08:55:09;;;;;;;1.53;1.43;;;5.40;99.90;;;;;;4965930;29;20455;-66
2022/01/31 08:57:36;;;;;;;2.10;1.90;;;5.40;99.90;;;;;;4960306;29;21017;-66
2022/01/31 09:00:06;;;;;;;3.97;1.77;;;5.40;99.90;;;;;;4957713;28;20459;-67
2022/01/31 09:02:39;;;;;;;2.47;1.40;;;5.50;99.90;;;;;;4956912;28;20485;-67
2022/01/31 09:05:07;;;;;;;3.70;1.73;;;5.60;99.90;;;;;;4957634;29;20819;-67
2022/01/31 09:07:34;;;;;;;3.67;1.33;;;5.60;99.90;;;;;;4957994;28;20483;-66
2022/01/31 09:10:01;;;;;;;1.80;1.53;;;6.00;99.90;;;;;;4957300;28;20463;-66
2022/01/31 09:12:31;;;;;;;2.83;2.27;;;6.60;99.90;;;;;;4957513;29;20906;-66
2022/01/31 09:14:58;;;;;;;1.57;1.47;;;7.30;99.90;;;;;;4959657;29;20462;-67
2022/01/31 09:17:26;;;;;;;1.43;1.33;;;8.80;99.90;;;;;;4958133;29;20452;-68
2022/01/31 09:19:53;;;;;;;1.70;1.60;;;10.00;99.90;;;;;;4958409;29;20455;-67
2022/01/31 09:22:20;;;;;;;2.00;1.40;;;10.50;99.90;;;;;;4958726;29;20480;-67
2022/01/31 09:24:49;;;;;;;2.27;1.77;;;10.40;99.90;;;;;;4958335;29;20460;-67
2022/01/31 09:27:16;;;;;;;1.70;1.43;;;10.10;99.90;;;;;;4959186;29;20459;-66
2022/01/31 09:29:43;;;;;;;3.03;1.60;;;9.50;99.90;;;;;;4958674;29;20441;-66
2022/01/31 09:32:11;;;;;;;2.50;1.70;;;9.00;99.90;;;;;;4957780;29;20847;-66
2022/01/31 09:34:40;;;;;;;2.57;1.47;;;8.70;99.90;;;;;;4958720;29;20507;-66
2022/01/31 09:37:08;;;;;;;4.77;1.80;;;8.60;99.90;;;;;;4958423;29;20467;-67
2022/01/31 09:39:35;;;;;;;2.10;1.43;;;8.60;99.90;;;;;;4957683;29;20462;-66
2022/01/31 09:42:03;;;;;;;3.37;2.17;;;8.40;99.90;;;;;;4958454;29;20584;-67
2022/01/31 09:44:44;;;;;;;1.70;1.60;;;8.20;99.90;;;;;;4958225;29;20821;-67
2022/01/31 09:47:21;;;;;;;1.90;1.50;;;8.00;99.90;;;;;;4957013;28;20598;-67
2022/01/31 09:49:49;;;;;;;2.70;1.60;;;7.80;99.90;;;;;;4958135;29;20453;-67
2022/01/31 09:52:16;;;;;;;2.27;1.90;;;7.60;99.90;;;;;;4957473;28;20506;-68
2022/01/31 09:54:47;;;;;;;3.53;1.90;;;7.40;99.90;;;;;;4956822;29;20787;-67
2022/01/31 09:57:15;;;;;;;1.60;1.60;;;7.20;99.90;;;;;;4957074;28;20442;-66
2022/01/31 09:59:41;;;;;;;4.00;1.40;;;7.00;99.90;;;;;;4957081;29;20452;-66
2022/01/31 10:02:14;;;;;;;2.57;1.80;;;6.70;99.90;;;;;;4956390;28;20488;-66
2022/01/31 10:04:45;;;;;;;6.10;2.40;;;6.70;99.90;;;;;;4957064;29;20461;-66
2022/01/31 10:07:14;;;;;;;2.63;1.70;;;6.60;99.90;;;;;;4956231;29;20445;-67
2022/01/31 10:09:46;;;;;;;2.10;1.90;;;6.50;99.90;;;;;;4956335;29;20462;-67
2022/01/31 10:12:25;;;;;;;2.30;1.77;;;6.60;99.90;;;;;;4956046;29;20475;-67
2022/01/31 10:17:38;;;;;;;3.43;2.20;;;6.50;99.90;;;;;;4956328;29;20438;-66
2022/01/31 10:20:08;;;;;;;6.27;1.93;;;6.50;99.90;;;;;;4955849;29;20458;-66
2022/01/31 10:22:39;;;;;;;5.60;2.20;;;6.60;99.90;;;;;;4955070;29;20898;-65
2022/01/31 10:25:09;;;;;;;2.30;1.87;;;6.50;99.90;;;;;;4955583;29;20501;-66
2022/01/31 10:27:37;;;;;;;4.70;2.30;;;6.60;99.90;;;;;;4955229;29;20474;-67
2022/01/31 10:30:10;;;;;;;3.50;2.00;;;6.60;99.90;;;;;;4955479;29;21065;-66
2022/01/31 10:32:39;;;;;;;2.23;2.00;;;6.60;99.90;;;;;;4955460;29;20480;-66
2022/01/31 10:35:09;;;;;;;5.60;2.20;;;6.60;99.90;;;;;;4955832;29;20444;-66
2022/01/31 10:37:40;;;;;;;3.03;2.13;;;6.60;99.90;;;;;;4955422;29;20462;-66
2022/01/31 10:45:56;;;;;;;4.03;2.37;;;6.60;99.90;;;;;;4955549;29;20559;-66
2022/01/31 10:54:25;;;;;;;4.13;2.53;;;6.40;99.90;;;;;;4956301;28;20538;-66
2022/01/31 10:56:54;;;;;;;2.60;1.70;;;6.30;99.90;;;;;;4955230;29;20853;-66
2022/01/31 10:59:24;;;;;;;3.30;1.90;;;6.40;99.90;;;;;;4957991;28;20459;-66
2022/01/31 11:01:53;;;;;;;5.53;2.30;;;6.50;99.90;;;;;;4958696;28;20487;-67
2022/01/31 11:04:20;;;;;;;2.77;1.97;;;6.50;99.90;;;;;;4958885;29;20949;-67
2022/01/31 11:06:48;;;;;;;6.50;3.20;;;6.60;99.90;;;;;;4969785;29;20463;-67
2022/01/31 11:09:19;;;;;;;4.35;2.00;;;6.60;99.90;;;;;;4967449;28;20466;-67
2022/01/31 11:11:47;;;;;;;3.07;2.10;;;7.00;99.90;;;;;;4959571;29;20216;-67
2022/01/31 11:14:15;;;;;;;3.45;1.60;;;7.30;99.90;;;;;;4958300;29;20463;-67
2022/01/31 11:16:44;;;;;;;4.00;2.30;;;7.50;99.90;;;;;;4959271;29;20208;-67
2022/01/31 11:19:12;;;;;;;8.63;2.10;;;7.90;99.90;;;;;;4958836;28;20463;-67
2022/01/31 11:21:44;;;;;;;3.67;1.70;;;8.00;99.90;;;;;;4957601;29;20463;-67
2022/01/31 11:24:18;;;;;;;4.63;1.80;;;8.10;99.90;;;;;;4958644;28;20491;-67
2022/01/31 11:26:49;;;;;;;3.50;1.83;;;8.60;99.90;;;;;;4959005;29;20190;-68
2022/01/31 11:29:16;;;;;;;3.47;1.70;;;8.80;99.90;;;;;;4958940;29;20446;-68
2022/01/31 11:31:43;;;;;;;2.97;1.90;;;8.50;99.90;;;;;;4959783;29;20496;-68
2022/01/31 11:34:10;;;;;;;3.47;1.90;;;8.10;99.90;;;;;;4959750;29;20539;-68
2022/01/31 11:36:39;;;;;;;2.83;1.70;;;7.70;99.90;;;;;;4962688;29;20814;-68
2022/01/31 11:39:09;;;;;;;5.67;1.13;;;7.50;99.90;;;;;;4958680;29;20455;-68
2022/01/31 11:41:42;;;;;;;2.90;2.50;;;7.20;99.90;;;;;;4958340;29;20482;-67
2022/01/31 11:44:16;;;;;;;3.30;1.63;;;7.10;99.90;;;;;;4958588;29;20440;-67
2022/01/31 11:46:43;;;;;;;2.77;1.63;;;6.90;99.90;;;;;;4960647;29;20441;-67
2022/01/31 11:49:10;;;;;;;2.77;1.53;;;6.80;99.90;;;;;;4959332;29;20451;-67
2022/01/31 11:52:02;;;;;;;2.83;2.27;;;6.70;99.90;;;;;;4959204;29;20504;-68
2022/01/31 11:54:29;;;;;;;3.70;1.70;;;6.50;99.90;;;;;;4958612;29;20452;-68
2022/01/31 11:56:55;;;;;;;2.37;1.40;;;6.40;99.90;;;;;;4958502;29;20464;-67
2022/01/31 11:59:25;;;;;;;2.00;1.40;;;6.40;99.90;;;;;;4959838;29;20460;-67
2022/01/31 12:01:52;;;;;;;1.63;1.47;;;6.30;99.90;;;;;;4961507;29;20592;-68
2022/01/31 12:04:22;;;;;;;2.87;1.50;;;6.30;99.90;;;;;;4962261;29;20459;-68
2022/01/31 12:06:49;;;;;;;1.90;1.10;;;6.30;99.90;;;;;;4961110;29;20458;-68
2022/01/31 12:09:20;;;;;;;3.80;1.77;;;6.20;99.90;;;;;;4960066;28;20458;-68
2022/01/31 12:11:56;;;;;;;4.80;1.77;;;6.20;99.90;;;;;;4957695;29;20484;-68
2022/01/31 12:14:28;;;;;;;4.10;1.73;;;6.20;99.90;;;;;;4958281;29;20464;-68
2022/01/31 12:17:15;;;;;;;2.13;1.30;;;6.20;99.90;;;;;;4958439;29;20442;-68
2022/01/31 12:20:00;;;;;;;2.10;1.37;;;6.20;99.90;;;;;;4957658;29;20910;-68
2022/01/31 12:22:40;;;;;;;3.07;1.53;;;6.30;99.90;;;;;;4957646;28;21004;-68
2022/01/31 12:25:27;;;;;;;5.10;1.40;;;6.40;99.90;;;;;;4957854;29;20465;-68
2022/01/31 12:27:54;;;;;;;3.00;1.50;;;6.40;99.90;;;;;;4958088;28;20801;-68
2022/01/31 12:30:33;;;;;;;3.03;1.50;;;6.40;99.90;;;;;;4957831;29;20467;-68
2022/01/31 12:33:00;;;;;;;3.97;1.40;;;6.40;99.90;;;;;;4958589;29;20437;-68
2022/01/31 12:35:35;;;;;;;1.40;1.23;;;6.40;99.90;;;;;;4957759;29;20462;-67
2022/01/31 12:38:04;;;;;;;6.03;1.63;;;6.40;99.90;;;;;;4957444;29;20466;-67
2022/01/31 12:40:39;;;;;;;3.63;1.60;;;6.40;99.90;;;;;;4957447;28;20462;-68
2022/01/31 12:43:23;;;;;;;2.03;1.33;;;6.40;99.90;;;;;;4957649;29;20467;-68
2022/01/31 12:46:17;;;;;;;3.03;1.40;;;6.40;99.90;;;;;;4958263;29;20456;-68
2022/01/31 12:49:03;;;;;;;3.90;1.63;;;6.20;99.90;;;;;;4957349;29;20439;-68
2022/01/31 12:51:30;;;;;;;5.27;2.50;;;6.10;99.90;;;;;;4957446;28;20477;-68
2022/01/31 12:53:58;;;;;;;2.83;1.37;;;6.10;99.90;;;;;;4956981;29;20455;-68
2022/01/31 12:56:30;;;;;;;6.67;1.50;;;6.10;99.90;;;;;;4956896;29;20564;-67
2022/01/31 12:59:05;;;;;;;2.40;1.60;;;6.10;99.90;;;;;;4957195;29;20462;-67
2022/01/31 13:01:38;;;;;;;1.43;1.33;;;6.00;99.90;;;;;;4957073;29;20738;-67
2022/01/31 13:04:07;;;;;;;5.00;1.60;;;6.10;99.90;;;;;;4957185;29;20539;-68
2022/01/31 13:06:37;;;;;;;1.40;1.30;;;6.10;99.90;;;;;;4958694;29;20460;-67
2022/01/31 13:09:10;;;;;;;5.33;2.40;;;6.10;99.90;;;;;;4960386;29;20442;-68
2022/01/31 13:11:37;;;;;;;8.50;2.00;;;6.10;99.90;;;;;;4956741;29;20483;-67
2022/01/31 13:14:06;;;;;;;2.70;1.50;;;6.10;99.90;;;;;;4957688;29;20467;-67
2022/01/31 13:16:46;;;;;;;6.50;2.90;;;6.10;99.90;;;;;;4956738;29;20457;-67
2022/01/31 13:19:18;;;;;;;2.87;1.50;;;6.00;99.90;;;;;;4956930;29;20842;-68
2022/01/31 13:21:46;;;;;;;2.13;1.70;;;5.90;99.90;;;;;;4956549;28;20481;-67
2022/01/31 13:24:13;;;;;;;1.90;1.63;;;5.90;99.90;;;;;;4956760;29;20939;-67
2022/01/31 13:26:55;;;;;;;3.70;1.60;;;5.90;99.90;;;;;;4956751;29;20461;-68
2022/01/31 13:29:44;;;;;;;4.57;1.67;;;5.90;99.90;;;;;;4956667;28;20464;-68
2022/01/31 13:32:22;;;;;;;6.47;1.77;;;5.90;99.90;;;;;;4953694;28;20474;-67
2022/01/31 13:34:52;;;;;;;5.00;2.30;;;5.90;99.90;;;;;;4956235;29;20795;-68
2022/01/31 13:37:45;;;;;;;1.70;1.60;;;5.90;99.90;;;;;;4956462;29;20477;-67
2022/01/31 13:40:19;;;;;;;5.03;2.13;;;5.80;99.90;;;;;;4946954;28;20455;-67
2022/01/31 13:42:55;;;;;;;2.57;1.53;;;5.90;99.90;;;;;;4955989;29;20525;-67
2022/01/31 13:45:28;;;;;;;3.50;1.50;;;6.00;99.90;;;;;;4956548;29;20792;-68
2022/01/31 13:48:00;;;;;;;2.90;1.77;;;6.10;99.90;;;;;;4956022;29;20443;-67
2022/01/31 13:50:32;;;;;;;3.50;1.30;;;6.20;99.90;;;;;;4956258;28;20470;-67
2022/01/31 13:53:05;;;;;;;6.77;1.90;;;6.20;99.90;;;;;;4956104;29;20937;-67
2022/01/31 13:55:33;;;;;;;3.13;1.33;;;6.20;99.90;;;;;;4956100;28;20438;-68
2022/01/31 13:58:01;;;;;;;3.40;1.60;;;6.30;99.90;;;;;;4956632;28;20472;-67
2022/01/31 14:00:28;;;;;;;7.67;1.70;;;6.30;99.90;;;;;;4956258;28;20850;-67
2022/01/31 14:03:18;;;;;;;4.97;1.70;;;6.30;99.90;;;;;;4956151;29;20836;-67
2022/01/31 14:05:54;;;;;;;2.70;1.73;;;6.10;99.90;;;;;;4953802;28;20461;-67
2022/01/31 14:08:25;;;;;;;3.03;1.77;;;6.10;99.90;;;;;;4956788;28;20448;-68
2022/01/31 14:11:05;;;;;;;2.37;1.30;;;6.00;99.90;;;;;;4956369;28;20887;-67
2022/01/31 14:13:34;;;;;;;3.37;1.67;;;5.90;99.90;;;;;;4957013;29;20439;-67
2022/01/31 14:16:00;;;;;;;2.87;1.50;;;5.80;99.90;;;;;;4957780;29;20454;-68
2022/01/31 14:18:31;;;;;;;5.43;1.87;;;5.70;99.90;;;;;;4956785;29;20436;-68
2022/01/31 14:21:03;;;;;;;3.93;1.50;;;5.70;99.90;;;;;;4958090;29;20803;-67
2022/01/31 14:23:34;;;;;;;2.20;1.20;;;5.60;99.90;;;;;;4963167;29;20474;-67
2022/01/31 14:26:00;;;;;;;8.17;2.20;;;5.60;99.90;;;;;;4961214;29;20444;-67
2022/01/31 14:28:34;;;;;;;4.43;1.30;;;5.60;99.90;;;;;;4956339;29;20461;-67
2022/01/31 14:31:01;;;;;;;2.43;1.50;;;5.60;99.90;;;;;;4956302;29;20480;-67
2022/01/31 14:33:31;;;;;;;4.00;1.60;;;5.50;99.90;;;;;;4955546;29;20458;-67
2022/01/31 14:36:03;;;;;;;2.77;1.40;;;5.40;99.90;;;;;;4956056;29;20444;-67
2022/01/31 14:38:35;;;;;;;4.37;1.63;;;5.40;99.90;;;;;;4957507;29;20461;-67
2022/01/31 14:49:21;;;;;;;4.27;1.60;;;5.20;99.90;;;;;;4955866;29;20774;-68
2022/01/31 14:51:49;;;;;;;4.03;1.60;;;5.10;99.90;;;;;;4955647;29;20477;-68
2022/01/31 14:54:17;;;;;;;3.13;2.23;;;5.10;99.90;;;;;;4955589;29;20489;-68
2022/01/31 14:56:46;;;;;;;6.67;1.80;;;5.00;99.90;;;;;;4956396;28;20463;-67
2022/01/31 14:59:13;;;;;;;5.53;2.37;;;4.80;99.90;;;;;;4955611;29;20460;-67
2022/01/31 15:01:40;;;;;;;6.07;2.50;;;4.70;99.90;;;;;;4955139;28;21002;-67
2022/01/31 15:04:19;;;;;;;3.87;2.97;;;4.60;99.90;;;;;;4955691;29;20996;-67
2022/01/31 15:06:46;;;;;;;5.53;2.50;;;4.60;99.90;;;;;;4955961;29;20447;-67
2022/01/31 15:09:13;;;;;;;5.53;2.03;;;4.50;99.90;;;;;;4956243;29;20555;-67
2022/01/31 15:11:40;;;;;;;4.27;2.40;;;4.50;99.90;;;;;;4955466;29;20481;-68
2022/01/31 15:14:07;;;;;;;5.97;2.30;;;4.50;99.90;;;;;;4955822;28;20452;-68
2022/01/31 15:16:34;;;;;;;7.53;2.40;;;4.50;99.90;;;;;;4955495;29;21000;-68
2022/01/31 15:19:02;;;;;;;11.03;2.93;;;4.50;99.90;;;;;;4955794;28;20461;-68
2022/01/31 15:21:33;;;;;;;7.03;3.27;;;4.40;99.90;;;;;;4955739;28;20576;-68
2022/01/31 15:24:00;;;;;;;7.67;2.23;;;4.40;99.90;;;;;;4955577;29;20511;-67
2022/01/31 15:26:27;;;;;;;8.10;2.90;;;4.40;99.90;;;;;;4955497;29;20454;-67
2022/01/31 15:28:54;;;;;;;6.60;2.60;;;4.30;99.90;;;;;;4960822;29;20467;-67
2022/01/31 15:31:22;;;;;;;11.97;2.47;;;4.30;99.90;;;;;;4956299;29;20476;-67
2022/01/31 15:33:50;;;;;;;8.33;2.40;;;4.30;99.90;;;;;;4955462;29;20451;-67
2022/01/31 15:36:18;;;;;;;8.57;2.80;;;4.30;99.90;;;;;;4955504;29;20460;-67
2022/01/31 15:38:47;;;;;;;4.23;2.33;;;4.40;99.90;;;;;;4955211;29;20461;-67
2022/01/31 15:41:16;;;;;;;7.63;2.60;;;4.40;99.90;;;;;;4955284;29;20480;-68
2022/01/31 15:43:43;;;;;;;5.27;2.33;;;4.40;99.90;;;;;;4955392;29;20502;-67
2022/01/31 15:46:10;;;;;;;8.37;2.20;;;4.40;99.90;;;;;;4957222;28;20456;-68
2022/01/31 15:48:37;;;;;;;6.10;2.17;;;4.40;99.90;;;;;;4959646;29;20441;-67
2022/01/31 15:51:05;;;;;;;5.77;2.50;;;4.40;99.90;;;;;;4959469;29;20482;-68
2022/01/31 15:53:32;;;;;;;5.17;1.93;;;4.40;99.90;;;;;;4958476;29;20959;-68
2022/01/31 15:56:00;;;;;;;6.80;1.70;;;4.50;99.90;;;;;;4959052;29;20462;-67
2022/01/31 15:58:27;;;;;;;2.57;2.20;;;4.50;99.90;;;;;;4958665;29;20496;-67
2022/01/31 16:00:56;;;;;;;4.87;1.87;;;4.50;99.90;;;;;;4959155;28;20492;-66
2022/01/31 16:03:23;;;;;;;7.10;1.97;;;4.50;99.90;;;;;;4958393;29;20488;-66
2022/01/31 16:05:50;;;;;;;4.00;1.87;;;4.60;99.90;;;;;;4958613;29;20487;-67
2022/01/31 16:08:16;;;;;;;4.93;1.90;;;4.60;99.90;;;;;;4958672;29;20463;-66
2022/01/31 16:10:46;;;;;;;6.50;1.87;;;4.60;99.90;;;;;;4959978;29;20483;-67
2022/01/31 16:13:19;;;;;;;7.87;2.37;;;4.50;99.90;;;;;;4962493;29;20497;-67
2022/01/31 16:15:47;;;;;;;4.77;1.60;;;4.50;99.90;;;;;;4958636;28;20867;-67
2022/01/31 16:18:15;;;;;;;11.13;2.20;;;4.60;99.90;;;;;;4958689;28;20536;-67
2022/01/31 16:20:43;;;;;;;3.43;1.83;;;4.60;99.90;;;;;;4958275;29;20806;-67
2022/01/31 16:23:09;;;;;;;6.43;2.50;;;4.60;99.90;;;;;;4957966;29;21020;-67
2022/01/31 16:25:38;;;;;;;7.10;2.10;;;4.60;99.90;;;;;;4958330;29;20457;-67
2022/01/31 16:28:05;;;;;;;4.40;1.90;;;4.50;99.90;;;;;;4958236;28;20456;-67
2022/01/31 16:30:34;;;;;;;5.00;1.70;;;4.60;99.90;;;;;;4958094;29;20545;-67
2022/01/31 16:33:01;;;;;;;5.80;1.90;;;4.60;99.90;;;;;;4958421;29;20456;-66
2022/01/31 16:35:28;;;;;;;5.30;1.73;;;4.60;99.90;;;;;;4957923;29;20462;-66
2022/01/31 16:37:54;;;;;;;9.50;1.40;;;4.60;99.90;;;;;;4958010;29;20466;-66
2022/01/31 16:40:21;;;;;;;9.47;2.77;;;4.60;99.90;;;;;;4957944;29;20460;-67
2022/01/31 16:42:48;;;;;;;7.03;2.20;;;4.70;99.90;;;;;;4957996;29;20480;-67
2022/01/31 16:45:16;;;;;;;3.43;1.70;;;4.70;99.90;;;;;;4957682;29;20465;-66
2022/01/31 16:47:46;;;;;;;4.23;1.60;;;4.70;99.90;;;;;;4958717;29;20560;-66
2022/01/31 16:50:14;;;;;;;8.90;2.27;;;4.70;99.90;;;;;;4957654;28;20477;-66
2022/01/31 16:52:42;;;;;;;5.57;1.97;;;4.70;99.90;;;;;;4957654;29;20481;-67
2022/01/31 16:55:11;;;;;;;4.50;1.90;;;4.70;99.90;;;;;;4957544;28;20457;-67
2022/01/31 16:57:38;;;;;;;4.00;1.90;;;4.80;99.90;;;;;;4957013;28;20467;-67
2022/01/31 17:00:07;;;;;;;6.63;2.27;;;4.80;99.90;;;;;;4957608;29;20456;-67
2022/01/31 17:02:34;;;;;;;5.70;2.40;;;4.80;99.90;;;;;;4956900;29;20492;-66
2022/01/31 17:05:03;;;;;;;6.67;2.07;;;4.80;99.90;;;;;;4957092;29;20972;-67
2022/01/31 17:07:29;;;;;;;3.60;1.77;;;4.80;99.90;;;;;;4957326;29;20462;-67
2022/01/31 17:09:56;;;;;;;5.03;2.20;;;4.90;99.90;;;;;;4957359;29;20462;-67
2022/01/31 17:12:26;;;;;;;5.27;2.37;;;4.90;99.90;;;;;;4957206;28;20503;-67
2022/01/31 17:14:53;;;;;;;4.50;2.10;;;4.90;99.90;;;;;;4957189;29;20460;-67
2022/01/31 17:17:20;;;;;;;7.07;2.40;;;5.00;99.90;;;;;;4957191;29;20956;-66
2022/01/31 17:19:47;;;;;;;7.57;2.13;;;5.00;99.90;;;;;;4957071;29;20462;-67
2022/01/31 17:22:15;;;;;;;7.03;2.73;;;5.10;99.90;;;;;;4956650;29;20482;-67
2022/01/31 17:24:42;;;;;;;2.63;1.90;;;5.10;99.90;;;;;;4961297;29;20912;-66
2022/01/31 17:27:09;;;;;;;9.70;2.53;;;5.00;99.90;;;;;;4964919;29;20462;-65
2022/01/31 17:29:36;;;;;;;8.83;3.53;;;5.00;99.90;;;;;;4961018;29;20471;-65
2022/01/31 17:32:03;;;;;;;8.00;2.73;;;5.00;99.90;;;;;;4957436;29;20493;-67
2022/01/31 17:34:29;;;;;;;4.43;2.00;;;5.00;99.90;;;;;;4957014;29;20458;-67
2022/01/31 17:36:56;;;;;;;7.20;2.43;;;5.00;99.90;;;;;;4957772;29;20462;-67
2022/01/31 17:39:24;;;;;;;3.97;2.10;;;5.00;99.90;;;;;;4958016;29;20466;-64
2022/01/31 17:41:59;;;;;;;5.30;2.30;;;5.00;99.90;;;;;;4957835;29;20566;-67
2022/01/31 17:44:32;;;;;;;2.27;1.83;;;5.00;99.90;;;;;;4960609;29;20476;-66
2022/01/31 17:46:59;;;;;;;8.57;2.33;;;5.00;99.90;;;;;;4957270;29;20445;-67
2022/01/31 17:49:26;;;;;;;10.60;3.30;;;4.90;99.90;;;;;;4956655;29;20454;-65
2022/01/31 17:51:53;;;;;;;4.37;1.50;;;5.00;99.90;;;;;;4956286;29;20482;-65
2022/01/31 17:54:20;;;;;;;4.93;2.20;;;4.90;99.90;;;;;;4956422;29;20442;-66
2022/01/31 17:56:51;;;;;;;7.60;2.20;;;4.90;99.90;;;;;;4956454;28;20764;-67
2022/01/31 17:59:18;;;;;;;7.03;1.90;;;5.00;99.90;;;;;;4956436;28;20446;-68
2022/01/31 18:01:45;;;;;;;7.93;1.80;;;4.90;99.90;;;;;;4955863;29;20483;-68
2022/01/31 18:04:12;;;;;;;8.90;2.40;;;5.00;99.90;;;;;;4956407;29;20480;-67
2022/01/31 18:06:39;;;;;;;7.33;2.20;;;5.00;99.90;;;;;;4956428;29;20469;-67
2022/01/31 18:09:05;;;;;;;6.20;1.90;;;5.00;99.90;;;;;;4956012;28;20459;-68
2022/01/31 18:11:32;;;;;;;6.33;2.03;;;5.00;99.90;;;;;;4955847;29;20479;-68
2022/01/31 18:14:01;;;;;;;7.57;3.17;;;4.90;99.90;;;;;;4956115;29;20456;-68
2022/01/31 18:16:28;;;;;;;7.57;2.10;;;4.90;99.90;;;;;;4956423;28;20465;-67
2022/01/31 18:18:54;;;;;;;5.10;2.27;;;4.90;99.90;;;;;;4956367;29;20458;-68
2022/01/31 18:21:21;;;;;;;4.90;2.30;;;4.80;99.90;;;;;;4956716;29;20476;-67
2022/01/31 18:23:48;;;;;;;5.70;2.90;;;4.80;99.90;;;;;;4956362;29;20481;-67
2022/01/31 18:26:15;;;;;;;7.97;2.70;;;4.80;99.90;;;;;;4956279;29;20464;-67
2022/01/31 18:28:42;;;;;;;7.23;2.37;;;4.70;99.90;;;;;;4956384;29;20461;-66
2022/01/31 18:31:11;;;;;;;4.83;2.00;;;4.70;99.90;;;;;;4956560;29;20484;-67
2022/01/31 18:33:39;;;;;;;8.67;2.53;;;4.60;99.90;;;;;;4956368;28;20505;-67